Latest Weather Observations for Combienbar

IDV60801

Issued at 12:35 pm EST Monday 21 April 2014 (issued every 30 minutes, with the page automatically refreshed every 10 minutes)

About weather observations | Map of weather stations | Latest weather observations for VIC | Other Formats
Station Details ID: 084143 Name: COMBIENBAR AWS Lat: -37.34 Lon: 149.02 Height: 640.0 m
Data from the previous 72 hours. | See also: Recent months at Combienbar
Date/Time
EST
Temp
°C
App
Temp
°C
Dew
Point
Rel
Hum
%
Delta-T
°C
Wind Press
QNH
hPa
Press
MSL
hPa
Rain
since 9 am
mm
Dir
 
Spd
km/h
Gust
km/h
Spd
kts
Gust
kts
21/12:30pm 16.1 15.1 7.3 56 4.5 NNE 2 9 1 5 1019.7 - 0.0
21/12:00pm 16.6 15.9 8.6 59 4.2 NNE 2 4 1 2 1020.1 1019.0 0.0
21/11:30am 14.5 14.2 8.5 67 3.1 CALM 0 0 0 0 1020.8 - 0.0
21/11:00am 15.7 15.3 8.2 61 3.9 CALM 0 2 0 1 1021.0 1020.0 0.0
21/10:30am 13.9 13.4 7.7 66 3.2 CALM 0 0 0 0 1021.2 - 0.0
21/10:00am 14.6 14.0 7.2 61 3.7 CALM 0 4 0 2 1021.3 1020.2 0.0
21/09:30am 14.8 13.9 7.8 63 3.6 NNE 2 6 1 3 1021.6 - 0.0
21/09:00am 14.9 13.8 7.0 59 4.0 NNE 2 4 1 2 1021.6 1020.5 0.0
21/08:30am 12.7 11.9 6.3 65 3.1 CALM 0 2 0 1 1021.5 - 0.0
21/08:00am 11.3 10.3 5.4 67 2.8 CALM 0 0 0 0 1021.4 1020.3 0.0
21/07:30am 10.8 9.4 3.6 61 3.3 CALM 0 0 0 0 1021.0 - 0.0
21/07:00am 9.7 8.0 2.1 59 3.3 CALM 0 0 0 0 1020.8 1019.8 0.0
21/06:30am 9.9 8.2 1.8 57 3.5 CALM 0 0 0 0 1020.6 - 0.0
21/06:00am 9.6 7.8 1.5 57 3.5 NNE 0 0 0 0 1020.3 1019.2 0.0
21/05:30am 9.4 7.7 1.8 59 3.3 CALM 0 0 0 0 1020.1 - 0.0
21/05:00am 9.6 7.9 2.0 59 3.3 CALM 0 0 0 0 1019.9 1018.8 0.0
21/04:30am 9.6 7.9 1.8 58 3.4 CALM 0 0 0 0 1019.6 - 0.0
21/04:00am 8.7 6.9 1.4 60 3.1 CALM 0 0 0 0 1019.4 1018.4 0.0
21/03:30am 8.8 7.0 1.5 60 3.1 CALM 0 0 0 0 1019.3 - 0.0
21/03:00am 8.9 7.2 1.8 61 3.1 CALM 0 0 0 0 1019.4 1018.4 0.0
21/02:30am 8.2 6.5 1.8 64 2.7 CALM 0 2 0 1 1019.6 - 0.0
21/02:00am 8.6 6.9 1.7 62 3.0 CALM 0 0 0 0 1019.4 1018.4 0.0
21/01:30am 8.3 6.6 1.9 64 2.8 CALM 0 0 0 0 1019.4 - 0.0
21/01:00am 8.6 6.9 1.7 62 3.0 CALM 0 4 0 2 1019.4 1018.4 0.0
21/12:30am 8.7 7.0 1.8 62 3.0 CALM 0 0 0 0 1019.4 - 0.0
21/12:00am 8.6 7.0 2.2 64 2.8 WNW 0 0 0 0 1019.4 1018.4 0.0
 
Date/Time
EST
Temp
°C
App
Temp
°C
Dew
Point
Rel
Hum
%
Delta-T
°C
Wind Press
QNH
hPa
Press
MSL
hPa
Rain
since 9 am
mm
Dir
 
Spd
km/h
Gust
km/h
Spd
kts
Gust
kts
20/11:30pm 8.4 6.9 3.1 69 2.3 CALM 0 4 0 2 1019.4 - 0.0
20/11:00pm 9.0 7.5 3.2 67 2.6 CALM 0 4 0 2 1019.6 1018.5 0.0
20/10:30pm 8.6 7.1 2.8 67 2.6 CALM 0 2 0 1 1019.8 - 0.0
20/10:00pm 9.0 7.4 2.3 63 2.9 CALM 0 0 0 0 1019.8 1018.7 0.0
20/09:30pm 8.7 7.0 2.1 63 2.9 CALM 0 4 0 2 1019.6 - 0.0
20/09:00pm 9.1 6.8 2.9 65 2.7 SW 4 7 2 4 1019.3 1018.3 0.0
20/08:30pm 8.5 6.6 3.1 69 2.4 SW 2 7 1 4 1019.2 - 0.0
20/08:00pm 8.9 7.1 3.5 69 2.4 SW 2 11 1 6 1019.1 1018.0 0.0
20/07:30pm 8.4 6.7 4.2 75 1.9 SW 2 6 1 3 1018.8 - 0.0
20/07:00pm 8.6 7.1 4.8 77 1.7 SW 2 9 1 5 1018.6 1017.5 0.0
20/06:30pm 9.1 8.1 5.8 80 1.6 CALM 0 2 0 1 1018.3 - 0.0
20/06:00pm 9.5 8.6 6.2 80 1.6 SSW 0 0 0 0 1018.1 1017.0 0.0
20/05:30pm 9.6 8.8 6.7 82 1.4 CALM 0 0 0 0 1017.5 - 0.0
20/05:00pm 9.7 8.9 6.6 81 1.5 CALM 0 0 0 0 1017.2 1016.1 0.0
20/04:30pm 10.1 9.4 6.8 80 1.6 CALM 0 0 0 0 1017.1 - 0.0
20/04:00pm 10.4 9.7 6.9 79 1.7 CALM 0 2 0 1 1016.8 1015.7 0.0
20/03:30pm 10.3 9.6 7.0 80 1.6 CALM 0 0 0 0 1016.6 - 0.0
20/03:00pm 10.9 10.3 7.2 78 1.8 CALM 0 2 0 1 1016.5 1015.3 0.0
20/02:30pm 11.2 10.5 7.1 76 2.0 CALM 0 2 0 1 1016.4 - 0.0
20/02:00pm 11.8 10.8 7.3 74 2.2 SSW 2 4 1 2 1016.3 1015.1 0.0
20/01:30pm 13.2 12.8 8.1 71 2.6 CALM 0 0 0 0 1016.0 - 0.0
20/01:00pm 12.9 12.3 7.4 69 2.8 CALM 0 0 0 0 1016.3 1015.1 0.0
20/12:30pm 12.6 11.7 6.2 65 3.1 CALM 0 0 0 0 1016.6 - 0.0
20/12:00pm 12.8 12.2 7.3 69 2.8 CALM 0 2 0 1 1016.9 1015.8 0.0
20/11:30am 12.6 11.9 6.9 68 2.8 CALM 0 4 0 2 1017.3 - 0.0
20/11:00am 12.0 11.1 5.9 66 3.0 CALM 0 0 0 0 1017.7 1016.6 0.0
20/10:30am 10.9 9.8 5.0 67 2.8 CALM 0 0 0 0 1017.9 - 0.0
20/10:00am 10.8 9.6 4.7 66 2.9 CALM 0 0 0 0 1018.0 1016.9 0.0
20/09:30am 10.0 8.7 4.0 66 2.7 CALM 0 0 0 0 1018.0 - 0.0
20/09:00am 10.3 9.0 4.2 66 2.8 CALM 0 0 0 0 1017.9 1016.8 0.0
20/08:30am 9.9 8.8 5.1 72 2.3 CALM 0 0 0 0 1017.9 - 0.0
20/08:00am 8.1 6.9 4.5 78 1.6 CALM 0 0 0 0 1017.6 1016.5 0.0
20/07:30am 7.4 6.0 3.8 78 1.6 CALM 0 0 0 0 1017.6 - 0.0
20/07:00am 6.6 5.2 3.4 80 1.4 CALM 0 0 0 0 1017.2 1016.1 0.0
20/06:30am 7.1 5.6 3.2 76 1.7 CALM 0 4 0 2 1017.0 - 0.0
20/06:00am 7.5 6.0 3.0 73 2.0 CALM 0 2 0 1 1016.8 1015.7 0.0
20/05:30am 7.6 6.0 2.7 71 2.1 CALM 0 0 0 0 1016.6 - 0.0
20/05:00am 7.6 6.0 2.7 71 2.1 CALM 0 0 0 0 1016.5 1015.3 0.0
20/04:30am 7.9 6.5 3.4 73 2.0 CALM 0 4 0 2 1016.5 - 0.0
20/04:00am 8.0 5.9 3.7 74 1.9 NNW 4 7 2 4 1016.7 1015.6 0.0
20/03:30am 6.9 5.5 3.5 79 1.5 CALM 0 0 0 0 1016.7 - 0.0
20/03:00am 6.8 5.3 3.2 78 1.6 CALM 0 2 0 1 1016.9 1015.8 0.0
20/02:30am 7.2 5.4 3.3 76 1.7 NW 2 6 1 3 1017.0 - 0.0
20/02:00am 7.4 6.0 3.5 76 1.7 CALM 0 2 0 1 1017.4 1016.3 0.0
20/01:30am 7.3 6.0 3.9 79 1.5 CALM 0 6 0 3 1017.6 - 0.0
20/01:00am 7.7 5.6 4.1 78 1.6 NW 4 7 2 4 1017.9 1016.8 0.0
20/12:30am 7.1 5.8 4.2 82 1.3 CALM 0 2 0 1 1017.9 - 0.0
20/12:00am 7.5 5.9 4.6 82 1.3 NW 2 7 1 4 1018.1 1017.0 0.0
 
Date/Time
EST
Temp
°C
App
Temp
°C
Dew
Point
Rel
Hum
%
Delta-T
°C
Wind Press
QNH
hPa
Press
MSL
hPa
Rain
since 9 am
mm
Dir
 
Spd
km/h
Gust
km/h
Spd
kts
Gust
kts
19/11:30pm 7.0 5.8 4.8 86 1.0 CALM 0 0 0 0 1018.3 - 0.0
19/11:00pm 7.2 6.1 5.2 87 0.9 CALM 0 4 0 2 1018.3 1017.2 0.0
19/10:30pm 7.2 5.5 5.7 90 0.7 WSW 4 7 2 4 1018.4 - 0.0
19/10:00pm 7.5 6.3 6.4 93 0.5 SW 2 4 1 2 1018.6 1017.5 0.0
19/09:30pm 7.9 7.2 7.1 95 0.4 CALM 0 0 0 0 1018.7 - 0.0
19/09:00pm 7.9 7.2 7.1 95 0.4 CALM 0 0 0 0 1018.6 1017.5 0.0
19/08:30pm 7.9 7.2 7.1 95 0.4 CALM 0 0 0 0 1018.7 - 0.0
19/08:00pm 7.6 6.8 6.7 94 0.4 CALM 0 0 0 0 1018.4 1017.3 0.0
19/07:30pm 7.7 7.0 7.0 95 0.3 CALM 0 0 0 0 1018.3 - 0.0
19/07:00pm 7.7 7.0 6.8 94 0.4 CALM 0 4 0 2 1018.2 1017.1 0.0
19/06:30pm 8.0 7.3 6.8 92 0.6 CALM 0 4 0 2 1018.2 - 0.0
19/06:00pm 8.5 7.8 7.0 90 0.7 CALM 0 4 0 2 1018.0 1016.9 0.0
19/05:30pm 8.7 7.4 6.0 83 1.3 SW 2 4 1 2 1017.6 - 0.0
19/05:00pm 9.1 7.8 6.0 81 1.5 SW 2 6 1 3 1017.5 1016.4 0.0
19/04:30pm 9.5 8.2 6.0 79 1.7 SSW 2 4 1 2 1017.4 - 0.0
19/04:00pm 9.8 9.0 6.3 79 1.7 CALM 0 4 0 2 1017.4 1016.3 0.0
19/03:30pm 9.7 8.4 6.1 78 1.7 SW 2 7 1 4 1017.3 - 0.0
19/03:00pm 10.2 9.0 6.5 78 1.8 SSW 2 4 1 2 1017.2 1016.1 0.0
19/02:30pm 10.0 8.2 5.6 74 2.1 SW 4 19 2 10 1017.1 - 0.0
19/02:00pm 10.1 9.3 8.0 87 1.1 SW 2 6 1 3 1017.1 1016.0 0.0
19/01:30pm 9.4 7.9 6.8 84 1.3 SSW 4 6 2 3 1017.0 - 0.0
19/01:00pm 10.1 7.8 5.9 75 2.0 SW 7 20 4 11 1017.0 1015.9 0.0
19/12:30pm 10.6 8.5 6.6 76 2.0 SW 7 17 4 9 1017.2 - 0.0
19/12:00pm 8.9 7.4 7.0 88 0.9 SW 4 13 2 7 1017.9 1016.8 0.0
19/11:30am 9.2 7.0 6.3 82 1.4 SW 7 13 4 7 1017.9 - 0.0
19/11:00am 10.3 8.1 6.1 75 2.0 SW 7 13 4 7 1017.9 1016.8 0.0
19/10:30am 9.1 7.0 5.8 80 1.6 SW 6 11 3 6 1018.2 - 0.0
19/10:00am 9.5 7.3 5.3 75 2.0 SW 6 19 3 10 1018.0 1016.9 0.0
19/09:30am 9.1 6.4 5.7 79 1.6 SW 9 15 5 8 1017.9 - 0.0
19/09:00am 8.3 5.9 5.4 82 1.4 SW 7 15 4 8 1017.9 1016.8 7.8
19/08:30am 8.3 5.9 5.2 81 1.4 SW 7 19 4 10 1017.7 - 7.8
19/08:00am 8.1 5.6 4.9 80 1.5 SSW 7 33 4 18 1017.4 1016.3 7.8
19/07:30am 8.0 5.6 4.4 78 1.6 SW 6 13 3 7 1017.1 - 7.8
19/07:00am 7.8 4.8 4.2 78 1.6 SW 9 15 5 8 1016.9 1015.8 7.8
19/06:30am 7.7 4.0 4.7 81 1.4 SW 13 26 7 14 1016.5 - 7.8
19/06:00am 7.8 4.9 4.6 80 1.5 SW 9 22 5 12 1016.5 1015.3 7.8
19/05:30am 7.6 4.7 4.6 81 1.4 SW 9 15 5 8 1016.3 - 7.8
19/05:00am 7.6 4.3 4.7 82 1.3 SW 11 19 6 10 1016.0 1014.9 7.8
19/04:30am 7.4 4.0 4.2 80 1.4 SW 11 20 6 11 1015.8 - 7.8
19/04:00am 7.7 3.9 3.9 77 1.7 SW 13 20 7 11 1015.7 1014.6 7.8
19/03:30am 7.6 4.0 4.9 83 1.2 SW 13 20 7 11 1015.7 - 7.8
19/03:00am 7.4 4.5 4.7 83 1.2 SW 9 15 5 8 1015.9 1014.8 7.8
19/02:30am 7.8 4.9 4.7 81 1.4 SW 9 20 5 11 1016.2 - 7.8
19/02:00am 7.9 5.4 4.8 81 1.4 SW 7 15 4 8 1016.4 1015.2 7.8
19/01:30am 7.9 5.6 5.0 82 1.3 SSW 6 17 3 9 1016.7 - 7.8
19/01:00am 7.9 5.6 4.8 81 1.4 SSW 6 13 3 7 1016.7 1015.6 7.8
19/12:30am 7.9 5.4 4.7 80 1.5 SW 7 17 4 9 1016.5 - 7.8
19/12:00am 8.1 6.2 4.9 80 1.5 SSW 4 13 2 7 1016.7 1015.6 7.8
 
Date/Time
EST
Temp
°C
App
Temp
°C
Dew
Point
Rel
Hum
%
Delta-T
°C
Wind Press
QNH
hPa
Press
MSL
hPa
Rain
since 9 am
mm
Dir
 
Spd
km/h
Gust
km/h
Spd
kts
Gust
kts
18/11:30pm 8.2 6.0 5.3 82 1.3 SSW 6 11 3 6 1016.8 - 7.8
18/11:00pm 8.3 6.1 5.4 82 1.4 SW 6 13 3 7 1016.9 1015.8 7.8
18/10:30pm 8.4 6.0 5.2 80 1.5 SW 7 24 4 13 1017.1 - 7.8
18/10:00pm 8.2 6.1 5.7 84 1.2 SSW 6 15 3 8 1017.3 1016.2 7.8
18/09:30pm 8.4 6.9 6.7 89 0.8 SW 4 7 2 4 1017.2 - 7.8
18/09:00pm 8.6 7.2 7.2 91 0.7 SW 4 15 2 8 1017.2 1016.1 7.8
18/08:30pm 8.8 6.9 7.4 91 0.7 SW 7 17 4 9 1016.8 - 7.8
18/08:00pm 8.8 6.6 7.9 94 0.4 SW 9 22 5 12 1016.6 1015.5 7.8
18/07:30pm 8.6 6.8 7.8 95 0.4 SW 7 13 4 7 1016.3 - 7.6
18/07:00pm 8.6 6.3 7.4 92 0.6 SW 9 15 5 8 1016.2 1015.0 7.4
18/06:30pm 8.9 6.2 7.2 89 0.8 SW 11 22 6 12 1015.7 - 7.2
18/06:00pm 8.6 5.6 7.8 95 0.4 SW 13 19 7 10 1015.6 1014.5 7.2
18/05:30pm 9.4 7.8 8.9 97 0.3 SSW 7 15 4 8 1015.5 - 7.2
18/05:00pm 9.8 8.3 9.3 97 0.3 SW 7 13 4 7 1015.0 1013.8 5.2
18/04:30pm 10.4 9.3 9.9 97 0.3 SSW 6 11 3 6 1014.4 - 4.4
18/04:00pm 11.3 10.4 10.5 95 0.4 SSW 6 13 3 7 1013.8 1012.7 0.4
18/03:30pm 12.4 10.1 10.3 87 1.1 SW 13 22 7 12 1013.3 - 0.0
18/03:00pm 15.8 14.5 7.8 59 4.2 SW 4 9 2 5 1012.3 1011.1 0.0
18/02:30pm 17.3 15.7 7.9 54 4.9 SW 6 13 3 7 1012.2 - 0.0
18/02:00pm 17.9 16.4 8.5 54 5.0 WSW 6 17 3 9 1012.6 1011.5 0.0
18/01:30pm 18.1 16.2 7.5 50 5.5 W 7 17 4 9 1012.7 - 0.0
18/01:00pm 17.7 16.0 7.7 52 5.2 SW 6 17 3 9 1013.3 1012.1 0.0

Other Formats:

Comma delimited format used in spreadsheet applications
http://www.bom.gov.au/fwo/IDV60801/IDV60801.94914.axf

JavaScript Object Notation format (JSON) in row-major order
http://www.bom.gov.au/fwo/IDV60801/IDV60801.94914.json